Terminal Aerodrome Forecast
Issued by NWS Cleveland, OH

Home | Current Version | Previous Version | Graphics & Text | Print | Product List | Glossary On
Versions: 1 2 3 4 5 6 7 8 9 10 11 12 13 14 15 16 17 18
000
FTUS41 KCLE 242324
TAFERI
TAF
KERI 242324Z 2500/2524 26010KT P6SM SCT060
     FM250500 23006KT P6SM BKN060
     FM251400 27010KT P6SM OVC035
      TEMPO 2515/2519 -SHRA OVC025
     FM251900 28010G18KT P6SM BKN050=

USA.gov is the U.S. government's official web portal to all federal, state and local government web resources and services.